• Join FlightAware (Why Join?)
  • Login
  • US Flag 
05:22PM EDT


 

Airport Tracker/Info


-or-


 

Live Flight TrackerFlight Track Log ✈ N506BA ✈ 29-Apr-2012 ✈ KHPN - KISP

Flight Track Log - Related Links

Times and Time Zones

All times are in EDT time to prevent confusion due to time zone crossing. See the N506BA flight status page for this flight to view local times or setup timezone preferences in your user account.

Time Position Orientation Groundspeed Altitude Reporting Facility
EDT Latitude Longitude Course Direction KTS MPH feet Rate Location/Type
02:17PM 41.0597 -73.6852 310° West  Level FlightAware Approximate
02:18PM 41.1333 -73.8000 37° Northeast 235 270 5,100  Level New York TRACON
02:19PM 41.2000 -73.7333 62° Northeast 274 315 5,000  Descending New York TRACON
02:20PM 41.2333 -73.6500 51° Northeast 258 297 5,100  Climbing New York TRACON
02:21PM 41.2833 -73.5667 102° East 265 305 5,100  Level New York TRACON
02:22PM 41.2667 -73.4667 102° East 290 334 5,100 -540 Level New York TRACON
02:23PM 41.2500 -73.3667 90° East 283 326 4,100 -540 Descending New York TRACON
02:24PM 41.2500 -73.2667 118° Southeast 267 307 4,100  Level New York TRACON
02:25PM 41.2167 -73.1833 143° Southeast 273 314 4,100  Level New York TRACON
02:26PM 41.1500 -73.1167 129° Southeast 275 316 4,100  Level New York TRACON
02:27PM 41.1000 -73.0333 135° Southeast 280 322 4,100  Level New York TRACON
02:28PM 41.0500 -72.9667 175° South 278 320 4,100 -420 Level New York TRACON
02:30PM 40.9000 -72.9500 180° South 259 298 3,000 -720 Descending New York TRACON
02:31PM 40.8500 -72.9500 207° Southwest 232 267 2,100 -600 Descending New York TRACON
02:32PM 40.8000 -72.9833 217° Southwest 175 201 1,800 -300 Descending New York TRACON
02:33PM 40.7667 -73.0167 270° West 124 143 1,500 -360 Descending New York TRACON
02:34PM 40.7667 -73.0667 318° Northwest 124 143 1,100 -420 Descending New York TRACON
02:42PM 41.0908 -73.4496 139° Southeast  Level Estimated
02:43PM 40.7833 -73.1000 359° North  Level FlightAware Approximate
02:44PM 40.8383 -73.1010 359° North  Level Estimated